createdAt,value
2023-03-29T00:01:00.177Z,64.35
2023-03-29T00:03:47.200Z,64.32
2023-03-29T00:06:33.737Z,64.17
2023-03-29T00:09:20.505Z,64.11
2023-03-29T00:12:06.022Z,64.00
2023-03-29T00:14:51.701Z,63.79
2023-03-29T00:17:36.870Z,63.27
2023-03-29T00:20:22.215Z,63.71
2023-03-29T00:23:07.797Z,64.04
2023-03-29T00:25:53.743Z,63.57
2023-03-29T00:28:39.444Z,63.65
2023-03-29T00:31:24.684Z,63.60
2023-03-29T00:34:10.049Z,64.29
2023-03-29T00:36:57.876Z,64.70
2023-03-29T00:39:43.991Z,64.00
2023-03-29T00:42:30.228Z,64.66
2023-03-29T00:45:25.457Z,64.85
2023-03-29T00:48:13.477Z,64.44
2023-03-29T00:51:10.055Z,64.28
2023-03-29T00:54:00.432Z,65.09
2023-03-29T00:56:50.160Z,65.27
2023-03-29T00:59:35.718Z,64.80
2023-03-29T01:02:25.990Z,65.27
2023-03-29T01:05:22.507Z,65.39
2023-03-29T01:08:25.627Z,65.05
2023-03-29T01:11:26.547Z,64.93
2023-03-29T01:14:29.898Z,65.48
2023-03-29T01:17:16.093Z,64.60
2023-03-29T01:20:43.359Z,63.98
2023-03-29T01:23:52.144Z,65.26
2023-03-29T01:26:43.962Z,64.37
2023-03-29T01:29:47.937Z,64.49
2023-03-29T01:32:38.859Z,64.87
2023-03-29T01:35:37.210Z,65.24
2023-03-29T01:38:30.424Z,65.57
2023-03-29T01:41:16.485Z,65.16
2023-03-29T01:44:31.460Z,65.40
2023-03-29T01:47:31.180Z,65.08
2023-03-29T01:50:27.825Z,65.32
2023-03-29T01:53:24.702Z,65.41
2023-03-29T01:56:16.224Z,65.27
2023-03-29T01:59:06.217Z,65.10
2023-03-29T02:01:57.340Z,65.79
2023-03-29T02:04:54.039Z,64.98
2023-03-29T02:07:40.600Z,65.43
2023-03-29T02:10:26.776Z,65.06
2023-03-29T02:13:12.214Z,65.38
2023-03-29T02:15:59.890Z,64.35
2023-03-29T02:18:48.206Z,64.36
2023-03-29T02:21:51.647Z,64.38
2023-03-29T02:24:38.539Z,64.80
2023-03-29T02:27:24.068Z,64.07
2023-03-29T02:30:12.419Z,63.65
2023-03-29T02:33:05.728Z,63.44
2023-03-29T02:36:07.973Z,64.42
2023-03-29T02:38:54.466Z,64.33
2023-03-29T02:41:43.194Z,64.27
2023-03-29T02:44:31.903Z,64.22
2023-03-29T02:47:25.010Z,63.80
2023-03-29T02:50:10.520Z,63.71
2023-03-29T02:53:02.506Z,64.82
2023-03-29T02:55:48.532Z,63.67
2023-03-29T02:58:33.624Z,64.27
2023-03-29T03:01:20.540Z,65.16
2023-03-29T03:04:07.732Z,65.04
2023-03-29T03:06:52.897Z,65.68
2023-03-29T03:09:38.397Z,65.22
2023-03-29T03:12:23.803Z,64.77
2023-03-29T03:15:10.461Z,65.31
2023-03-29T03:17:57.722Z,65.42
2023-03-29T03:20:46.927Z,65.86
2023-03-29T03:23:32.077Z,65.92
2023-03-29T03:26:18.189Z,65.57
2023-03-29T03:29:03.402Z,65.34
2023-03-29T03:32:07.729Z,65.83
2023-03-29T03:35:12.765Z,65.13
2023-03-29T03:37:59.191Z,64.74
2023-03-29T03:40:44.498Z,64.98
2023-03-29T03:43:29.872Z,64.65
2023-03-29T03:46:16.932Z,64.33
2023-03-29T03:49:04.529Z,64.94
2023-03-29T03:51:57.957Z,64.30
2023-03-29T03:54:46.482Z,64.55
2023-03-29T03:57:57.118Z,64.19
2023-03-29T04:00:42.940Z,64.32
2023-03-29T04:03:48.007Z,65.45
2023-03-29T04:06:35.398Z,65.15
2023-03-29T04:09:46.345Z,64.67
2023-03-29T04:12:41.497Z,64.64
2023-03-29T04:15:28.860Z,64.52
2023-03-29T04:18:26.285Z,65.02
2023-03-29T04:21:15.461Z,63.73
2023-03-29T04:24:01.978Z,64.16
2023-03-29T04:26:49.889Z,64.45
2023-03-29T04:29:40.028Z,64.02
2023-03-29T04:32:37.108Z,64.23
2023-03-29T04:35:27.085Z,64.26
2023-03-29T04:38:12.590Z,64.46
2023-03-29T04:41:01.078Z,64.59
2023-03-29T04:44:06.760Z,63.95
2023-03-29T04:46:52.886Z,64.62
2023-03-29T04:50:08.315Z,64.50
2023-03-29T04:53:00.205Z,64.48
2023-03-29T04:55:47.670Z,65.35
2023-03-29T04:58:40.166Z,64.76
2023-03-29T05:01:25.612Z,64.23
2023-03-29T05:04:16.077Z,64.13
2023-03-29T05:07:15.616Z,63.93
2023-03-29T05:10:01.320Z,63.67
2023-03-29T05:12:46.944Z,63.90
2023-03-29T05:15:32.703Z,63.98
2023-03-29T05:18:18.313Z,64.27
2023-03-29T05:21:04.566Z,64.55
2023-03-29T05:23:52.483Z,64.82
2023-03-29T05:26:56.687Z,64.60
2023-03-29T05:29:44.701Z,65.03
2023-03-29T05:32:43.864Z,64.85
2023-03-29T05:35:33.487Z,64.66
2023-03-29T05:38:20.885Z,64.21
2023-03-29T05:41:06.447Z,64.78
2023-03-29T05:44:11.533Z,64.34
2023-03-29T05:46:59.037Z,64.00
2023-03-29T05:49:44.771Z,63.06
2023-03-29T05:52:32.275Z,62.57
2023-03-29T05:55:17.855Z,62.38
2023-03-29T05:58:03.816Z,62.95
2023-03-29T06:00:52.877Z,62.69
2023-03-29T06:04:01.615Z,62.11
2023-03-29T06:06:56.427Z,61.28
2023-03-29T06:09:41.822Z,61.90
2023-03-29T06:12:28.133Z,62.13
2023-03-29T06:15:18.145Z,61.73
2023-03-29T06:18:07.252Z,60.22
2023-03-29T06:20:55.100Z,60.48
2023-03-29T06:23:41.788Z,60.91
2023-03-29T06:26:30.567Z,60.41
2023-03-29T06:29:15.730Z,58.91
2023-03-29T06:32:02.019Z,59.46
2023-03-29T06:35:14.355Z,59.88
2023-03-29T06:38:05.187Z,60.01
2023-03-29T06:41:13.512Z,58.75
2023-03-29T06:44:12.211Z,59.31
2023-03-29T06:47:14.498Z,58.58
2023-03-29T06:49:59.688Z,58.72
2023-03-29T06:52:49.926Z,59.19
2023-03-29T06:55:35.966Z,58.89
2023-03-29T06:58:40.737Z,58.15
2023-03-29T07:01:58.426Z,58.44
2023-03-29T07:05:06.871Z,58.14
2023-03-29T07:07:59.888Z,57.90
2023-03-29T07:11:01.392Z,58.08
2023-03-29T07:14:19.335Z,57.98
2023-03-29T07:17:05.736Z,57.52
2023-03-29T07:19:53.118Z,57.43
2023-03-29T07:23:00.641Z,57.44
2023-03-29T07:25:46.911Z,56.22
2023-03-29T07:28:32.176Z,57.00
2023-03-29T07:31:17.704Z,55.67
2023-03-29T07:34:11.922Z,55.75
2023-03-29T07:36:57.715Z,55.84
2023-03-29T07:39:42.834Z,55.66
2023-03-29T07:42:50.587Z,55.50
2023-03-29T07:45:40.594Z,55.73
2023-03-29T07:48:30.048Z,55.15
2023-03-29T07:51:19.297Z,55.82
2023-03-29T07:54:10.766Z,55.19
2023-03-29T07:57:23.668Z,55.41
2023-03-29T08:00:16.876Z,54.47
2023-03-29T08:03:13.291Z,54.37
2023-03-29T08:06:03.037Z,53.96
2023-03-29T08:08:48.446Z,53.83
2023-03-29T08:11:35.490Z,54.02
2023-03-29T08:14:23.724Z,54.17
2023-03-29T08:17:23.728Z,53.96
2023-03-29T08:20:12.376Z,52.65
2023-03-29T08:23:00.742Z,53.38
2023-03-29T08:26:08.552Z,53.49
2023-03-29T08:28:53.975Z,53.55
2023-03-29T08:31:41.916Z,53.07
2023-03-29T08:34:27.068Z,53.29
2023-03-29T08:37:31.692Z,53.20
2023-03-29T08:40:24.698Z,53.02
2023-03-29T08:43:49.216Z,52.01
2023-03-29T08:46:55.168Z,51.86
2023-03-29T08:49:52.560Z,51.78
2023-03-29T08:52:47.572Z,51.86
2023-03-29T08:55:48.610Z,51.45
2023-03-29T08:58:54.440Z,50.74
2023-03-29T09:01:42.383Z,52.09
2023-03-29T09:04:34.848Z,52.20
2023-03-29T09:07:42.013Z,51.73
2023-03-29T09:10:41.627Z,50.68
2023-03-29T09:13:44.315Z,49.83
2023-03-29T09:16:51.958Z,50.59
2023-03-29T09:19:48.632Z,50.40
2023-03-29T09:22:37.892Z,51.24
2023-03-29T09:25:57.985Z,54.88
2023-03-29T09:29:09.467Z,86.13
2023-03-29T09:31:56.575Z,68.21
2023-03-29T09:34:53.124Z,62.14
2023-03-29T09:37:41.123Z,53.88
2023-03-29T09:40:34.101Z,52.46
2023-03-29T09:43:36.033Z,52.11
2023-03-29T09:46:30.324Z,45.57
2023-03-29T09:49:21.659Z,44.59
2023-03-29T09:52:12.960Z,44.43
2023-03-29T09:55:03.692Z,45.31
2023-03-29T09:58:15.282Z,46.44
2023-03-29T10:01:11.085Z,47.46
2023-03-29T10:03:56.675Z,47.86
2023-03-29T10:06:47.028Z,48.12
2023-03-29T10:09:32.881Z,47.97
2023-03-29T10:12:33.470Z,48.22
2023-03-29T10:15:29.322Z,47.87
2023-03-29T10:18:16.880Z,48.03
2023-03-29T10:21:04.719Z,48.86
2023-03-29T10:23:58.197Z,48.33
2023-03-29T10:26:43.620Z,47.76
2023-03-29T10:29:41.032Z,47.13
2023-03-29T10:32:35.061Z,47.49
2023-03-29T10:35:34.717Z,46.91
2023-03-29T10:38:22.795Z,47.30
2023-03-29T10:41:12.704Z,48.35
2023-03-29T10:43:59.920Z,48.89
2023-03-29T10:46:45.155Z,49.16
2023-03-29T10:49:30.822Z,48.85
2023-03-29T10:52:17.648Z,48.82
2023-03-29T10:55:03.176Z,49.68
2023-03-29T10:57:51.700Z,49.37
2023-03-29T11:01:00.238Z,49.40
2023-03-29T11:04:02.212Z,48.89
2023-03-29T11:07:08.658Z,48.68
2023-03-29T11:10:12.894Z,48.73
2023-03-29T11:13:17.515Z,49.03
2023-03-29T11:16:29.168Z,48.89
2023-03-29T11:19:59.173Z,49.38
2023-03-29T11:22:57.160Z,47.72
2023-03-29T11:26:02.301Z,48.09
2023-03-29T11:29:12.066Z,48.31
2023-03-29T11:32:03.771Z,48.36
2023-03-29T11:35:06.420Z,48.75
2023-03-29T11:38:10.934Z,49.21
2023-03-29T11:41:15.744Z,49.25
2023-03-29T11:44:15.730Z,49.77
2023-03-29T11:47:12.755Z,49.18
2023-03-29T11:50:03.522Z,48.99
2023-03-29T11:52:54.324Z,48.99
2023-03-29T11:55:44.779Z,48.33
2023-03-29T11:58:38.862Z,47.86
2023-03-29T12:01:40.025Z,47.48
2023-03-29T12:04:43.436Z,46.59
2023-03-29T12:07:35.805Z,45.88
2023-03-29T12:10:23.835Z,45.44
2023-03-29T12:13:14.968Z,45.13
2023-03-29T12:16:10.266Z,45.33
2023-03-29T12:18:57.915Z,45.30
2023-03-29T12:21:46.533Z,45.74
2023-03-29T12:24:35.463Z,45.91
2023-03-29T12:27:39.061Z,46.48
2023-03-29T12:30:50.647Z,46.36
2023-03-29T12:33:54.769Z,46.22
2023-03-29T12:37:20.955Z,45.44
2023-03-29T12:40:37.964Z,45.33
2023-03-29T12:43:45.126Z,46.54
2023-03-29T12:46:47.097Z,46.95
2023-03-29T12:49:35.445Z,46.41
2023-03-29T12:52:35.664Z,45.75
2023-03-29T12:55:34.345Z,46.09
2023-03-29T12:58:26.088Z,46.12
2023-03-29T13:01:29.527Z,46.09
2023-03-29T13:04:20.574Z,45.71
2023-03-29T13:07:11.556Z,45.59
2023-03-29T13:10:08.720Z,45.09
2023-03-29T13:12:54.712Z,44.79
2023-03-29T13:15:40.066Z,44.35
2023-03-29T13:19:13.900Z,44.52
2023-03-29T13:22:17.996Z,44.68
2023-03-29T13:25:25.187Z,44.93
2023-03-29T13:28:24.654Z,45.46
2023-03-29T13:31:28.440Z,45.97
2023-03-29T13:34:19.969Z,46.05
2023-03-29T13:37:32.190Z,46.29
2023-03-29T13:41:03.958Z,46.12
2023-03-29T13:43:53.750Z,46.21
2023-03-29T13:46:42.298Z,46.92
2023-03-29T13:49:32.081Z,46.85
2023-03-29T13:52:30.590Z,46.57
2023-03-29T13:55:22.610Z,46.79
2023-03-29T13:58:32.782Z,46.54
2023-03-29T14:01:43.676Z,45.70
2023-03-29T14:04:51.455Z,46.60
2023-03-29T14:07:39.377Z,46.10
2023-03-29T14:10:31.948Z,46.49
2023-03-29T14:13:19.186Z,46.79
2023-03-29T14:16:10.627Z,47.13
2023-03-29T14:18:59.753Z,47.64
2023-03-29T14:21:45.861Z,47.52
2023-03-29T14:24:39.732Z,48.20
2023-03-29T14:27:30.866Z,48.54
2023-03-29T14:30:22.889Z,48.52
2023-03-29T14:33:13.684Z,48.70
2023-03-29T14:36:06.332Z,49.22
2023-03-29T14:39:18.050Z,49.47
2023-03-29T14:42:03.647Z,49.41
2023-03-29T14:44:50.274Z,50.44
2023-03-29T14:47:36.732Z,49.92
2023-03-29T14:50:29.689Z,50.70
2023-03-29T14:53:21.994Z,51.00
2023-03-29T14:56:18.430Z,50.76
2023-03-29T14:59:04.796Z,51.07
2023-03-29T15:01:50.368Z,51.57
2023-03-29T15:04:37.473Z,51.46
2023-03-29T15:07:25.219Z,51.93
2023-03-29T15:10:18.924Z,52.41
2023-03-29T15:13:06.587Z,52.19
2023-03-29T15:15:56.415Z,52.97
2023-03-29T15:18:44.074Z,52.79
2023-03-29T15:21:33.442Z,53.88
2023-03-29T15:24:20.636Z,54.22
2023-03-29T15:27:18.219Z,83.47
2023-03-29T15:30:13.048Z,67.18
2023-03-29T15:33:18.105Z,64.71
2023-03-29T15:36:05.715Z,57.76
2023-03-29T15:38:51.501Z,55.84
2023-03-29T15:41:36.846Z,57.32
2023-03-29T15:44:32.692Z,53.89
2023-03-29T15:47:18.145Z,53.48
2023-03-29T15:50:03.743Z,52.32
2023-03-29T15:52:49.110Z,52.40
2023-03-29T15:55:35.084Z,54.03
2023-03-29T15:58:25.783Z,51.83
2023-03-29T16:01:35.515Z,52.05
2023-03-29T16:04:22.103Z,52.99
2023-03-29T16:07:13.329Z,53.71
2023-03-29T16:09:58.445Z,54.29
2023-03-29T16:12:43.844Z,54.33
2023-03-29T16:15:32.195Z,54.50
2023-03-29T16:18:17.276Z,55.12
2023-03-29T16:21:03.414Z,55.12
2023-03-29T16:23:48.718Z,55.64
2023-03-29T16:26:34.190Z,55.12
2023-03-29T16:29:19.649Z,55.49
2023-03-29T16:32:06.718Z,55.01
2023-03-29T16:34:52.423Z,55.38
2023-03-29T16:37:37.604Z,55.77
2023-03-29T16:40:23.696Z,55.84
2023-03-29T16:43:14.818Z,56.12
2023-03-29T16:46:00.250Z,56.57
2023-03-29T16:48:46.509Z,56.42
2023-03-29T16:51:31.692Z,56.93
2023-03-29T16:54:17.508Z,56.94
2023-03-29T16:57:02.799Z,57.56
2023-03-29T16:59:47.979Z,57.40
2023-03-29T17:02:33.477Z,58.06
2023-03-29T17:05:19.015Z,58.14
2023-03-29T17:08:04.534Z,57.85
2023-03-29T17:10:53.426Z,58.44
2023-03-29T17:13:38.761Z,58.47
2023-03-29T17:16:24.447Z,58.45
2023-03-29T17:19:09.740Z,59.00
2023-03-29T17:21:55.175Z,59.38
2023-03-29T17:24:41.031Z,59.66
2023-03-29T17:27:26.401Z,59.92
2023-03-29T17:30:12.307Z,59.81
2023-03-29T17:32:57.569Z,60.01
2023-03-29T17:35:44.266Z,60.38
2023-03-29T17:38:30.609Z,74.64
2023-03-29T17:41:16.386Z,70.55
2023-03-29T17:44:02.404Z,64.56
2023-03-29T17:46:47.606Z,62.76
2023-03-29T17:49:32.555Z,60.16
2023-03-29T17:52:17.972Z,59.86
2023-03-29T17:55:03.218Z,59.86
2023-03-29T17:57:48.997Z,59.43
2023-03-29T18:00:34.317Z,59.71
